sensor_id;sensor_type;location;lat;lon;timestamp;P1;durP1;ratioP1;P2;durP2;ratioP2
41943;SDS011;27636;52.610;13.244;2023-10-19T00:03:35;18.27;;;7.55;;
41943;SDS011;27636;52.610;13.244;2023-10-19T00:13:45;16.80;;;6.05;;
41943;SDS011;27636;52.610;13.244;2023-10-19T00:18:50;19.38;;;4.90;;
41943;SDS011;27636;52.610;13.244;2023-10-19T00:23:56;25.80;;;6.53;;
41943;SDS011;27636;52.610;13.244;2023-10-19T00:29:01;18.33;;;6.88;;
41943;SDS011;27636;52.610;13.244;2023-10-19T00:34:23;13.02;;;5.75;;
41943;SDS011;27636;52.610;13.244;2023-10-19T00:39:26;21.48;;;7.10;;
41943;SDS011;27636;52.610;13.244;2023-10-19T00:44:30;14.98;;;6.85;;
41943;SDS011;27636;52.610;13.244;2023-10-19T00:49:43;14.43;;;6.18;;
41943;SDS011;27636;52.610;13.244;2023-10-19T00:54:48;14.88;;;6.75;;
41943;SDS011;27636;52.610;13.244;2023-10-19T00:59:53;13.63;;;6.32;;
41943;SDS011;27636;52.610;13.244;2023-10-19T01:04:59;15.93;;;6.88;;
41943;SDS011;27636;52.610;13.244;2023-10-19T01:10:12;11.48;;;5.93;;
41943;SDS011;27636;52.610;13.244;2023-10-19T01:15:24;14.23;;;6.03;;
41943;SDS011;27636;52.610;13.244;2023-10-19T01:20:31;21.05;;;7.55;;
41943;SDS011;27636;52.610;13.244;2023-10-19T01:25:43;19.95;;;7.63;;
41943;SDS011;27636;52.610;13.244;2023-10-19T01:30:53;16.23;;;7.05;;
41943;SDS011;27636;52.610;13.244;2023-10-19T01:43:08;23.30;;;6.85;;
41943;SDS011;27636;52.610;13.244;2023-10-19T01:48:12;19.45;;;7.43;;
41943;SDS011;27636;52.610;13.244;2023-10-19T01:53:16;14.90;;;7.13;;
41943;SDS011;27636;52.610;13.244;2023-10-19T01:58:22;15.13;;;6.85;;
41943;SDS011;27636;52.610;13.244;2023-10-19T02:03:27;20.02;;;7.45;;
41943;SDS011;27636;52.610;13.244;2023-10-19T02:08:32;16.83;;;6.65;;
41943;SDS011;27636;52.610;13.244;2023-10-19T02:13:36;18.65;;;7.80;;
41943;SDS011;27636;52.610;13.244;2023-10-19T02:18:43;17.15;;;7.10;;
41943;SDS011;27636;52.610;13.244;2023-10-19T02:23:47;17.30;;;7.80;;
41943;SDS011;27636;52.610;13.244;2023-10-19T02:28:54;15.98;;;8.10;;
41943;SDS011;27636;52.610;13.244;2023-10-19T02:34:00;18.20;;;7.82;;
41943;SDS011;27636;52.610;13.244;2023-10-19T02:39:04;18.40;;;7.90;;
41943;SDS011;27636;52.610;13.244;2023-10-19T02:44:13;16.25;;;7.22;;
41943;SDS011;27636;52.610;13.244;2023-10-19T02:49:21;19.10;;;6.88;;
41943;SDS011;27636;52.610;13.244;2023-10-19T02:54:25;17.70;;;7.53;;
41943;SDS011;27636;52.610;13.244;2023-10-19T02:59:33;18.55;;;7.68;;
41943;SDS011;27636;52.610;13.244;2023-10-19T03:04:37;22.17;;;7.68;;
41943;SDS011;27636;52.610;13.244;2023-10-19T03:09:41;18.38;;;6.93;;
41943;SDS011;27636;52.610;13.244;2023-10-19T03:14:58;23.95;;;8.13;;
41943;SDS011;27636;52.610;13.244;2023-10-19T03:20:04;25.42;;;8.35;;
41943;SDS011;27636;52.610;13.244;2023-10-19T03:25:14;19.25;;;7.47;;
41943;SDS011;27636;52.610;13.244;2023-10-19T03:30:39;15.55;;;6.90;;
41943;SDS011;27636;52.610;13.244;2023-10-19T03:35:42;17.13;;;7.88;;
41943;SDS011;27636;52.610;13.244;2023-10-19T03:40:46;13.82;;;7.20;;
41943;SDS011;27636;52.610;13.244;2023-10-19T03:45:56;21.55;;;8.70;;
41943;SDS011;27636;52.610;13.244;2023-10-19T03:51:02;15.45;;;7.68;;
41943;SDS011;27636;52.610;13.244;2023-10-19T03:56:05;19.23;;;8.70;;
41943;SDS011;27636;52.610;13.244;2023-10-19T04:01:15;20.00;;;8.43;;
41943;SDS011;27636;52.610;13.244;2023-10-19T04:06:19;22.13;;;8.23;;
41943;SDS011;27636;52.610;13.244;2023-10-19T04:11:24;14.23;;;6.47;;
41943;SDS011;27636;52.610;13.244;2023-10-19T04:16:37;19.73;;;8.10;;
41943;SDS011;27636;52.610;13.244;2023-10-19T04:21:42;21.63;;;7.78;;
41943;SDS011;27636;52.610;13.244;2023-10-19T04:26:49;14.25;;;7.68;;
41943;SDS011;27636;52.610;13.244;2023-10-19T04:31:55;19.90;;;8.43;;
41943;SDS011;27636;52.610;13.244;2023-10-19T04:42:02;22.70;;;9.73;;
41943;SDS011;27636;52.610;13.244;2023-10-19T04:47:08;15.35;;;8.32;;
41943;SDS011;27636;52.610;13.244;2023-10-19T04:52:12;17.70;;;8.07;;
41943;SDS011;27636;52.610;13.244;2023-10-19T04:57:16;19.85;;;10.13;;
41943;SDS011;27636;52.610;13.244;2023-10-19T05:02:21;19.98;;;8.50;;
41943;SDS011;27636;52.610;13.244;2023-10-19T05:12:29;21.73;;;10.63;;
41943;SDS011;27636;52.610;13.244;2023-10-19T05:17:34;18.83;;;9.23;;
41943;SDS011;27636;52.610;13.244;2023-10-19T05:22:38;19.58;;;9.07;;
41943;SDS011;27636;52.610;13.244;2023-10-19T05:27:42;24.85;;;10.73;;
41943;SDS011;27636;52.610;13.244;2023-10-19T05:32:50;32.72;;;11.20;;
41943;SDS011;27636;52.610;13.244;2023-10-19T05:37:54;22.52;;;10.73;;
41943;SDS011;27636;52.610;13.244;2023-10-19T05:43:01;23.17;;;10.50;;
41943;SDS011;27636;52.610;13.244;2023-10-19T05:48:07;24.15;;;9.40;;
41943;SDS011;27636;52.610;13.244;2023-10-19T05:53:11;21.27;;;9.25;;
41943;SDS011;27636;52.610;13.244;2023-10-19T05:58:16;22.10;;;9.60;;
41943;SDS011;27636;52.610;13.244;2023-10-19T06:03:20;21.10;;;9.30;;
41943;SDS011;27636;52.610;13.244;2023-10-19T06:08:24;21.33;;;9.38;;
41943;SDS011;27636;52.610;13.244;2023-10-19T06:13:28;23.20;;;10.83;;
41943;SDS011;27636;52.610;13.244;2023-10-19T06:18:34;20.67;;;9.75;;
41943;SDS011;27636;52.610;13.244;2023-10-19T06:23:37;24.58;;;10.25;;
41943;SDS011;27636;52.610;13.244;2023-10-19T06:28:41;25.10;;;10.55;;
41943;SDS011;27636;52.610;13.244;2023-10-19T06:33:46;19.92;;;8.95;;
41943;SDS011;27636;52.610;13.244;2023-10-19T06:39:05;23.50;;;9.73;;
41943;SDS011;27636;52.610;13.244;2023-10-19T09:36:22;22.70;;;10.15;;
41943;SDS011;27636;52.610;13.244;2023-10-19T09:41:33;23.73;;;10.48;;
41943;SDS011;27636;52.610;13.244;2023-10-19T09:53:44;18.60;;;8.25;;
41943;SDS011;27636;52.610;13.244;2023-10-19T10:12:18;20.02;;;9.57;;
41943;SDS011;27636;52.610;13.244;2023-10-19T10:17:24;24.02;;;10.10;;
41943;SDS011;27636;52.610;13.244;2023-10-19T10:29:38;20.95;;;9.40;;
41943;SDS011;27636;52.610;13.244;2023-10-19T10:56:14;21.27;;;11.15;;
41943;SDS011;27636;52.610;13.244;2023-10-19T11:06:33;22.40;;;9.23;;
41943;SDS011;27636;52.610;13.244;2023-10-19T11:11:50;25.50;;;11.82;;
41943;SDS011;27636;52.610;13.244;2023-10-19T11:16:56;22.05;;;10.77;;
41943;SDS011;27636;52.610;13.244;2023-10-19T11:22:15;22.65;;;11.23;;
41943;SDS011;27636;52.610;13.244;2023-10-19T11:27:23;25.10;;;10.40;;
41943;SDS011;27636;52.610;13.244;2023-10-19T11:32:35;26.73;;;9.63;;
41943;SDS011;27636;52.610;13.244;2023-10-19T11:37:47;23.83;;;11.05;;
41943;SDS011;27636;52.610;13.244;2023-10-19T11:42:53;26.98;;;10.68;;
41943;SDS011;27636;52.610;13.244;2023-10-19T11:48:00;29.73;;;12.00;;
41943;SDS011;27636;52.610;13.244;2023-10-19T11:53:04;27.98;;;12.40;;
41943;SDS011;27636;52.610;13.244;2023-10-19T11:58:10;27.40;;;11.23;;
41943;SDS011;27636;52.610;13.244;2023-10-19T12:03:17;26.67;;;11.15;;
41943;SDS011;27636;52.610;13.244;2023-10-19T12:21:55;21.70;;;10.88;;
41943;SDS011;27636;52.610;13.244;2023-10-19T12:26:58;24.73;;;11.68;;
41943;SDS011;27636;52.610;13.244;2023-10-19T12:32:03;29.95;;;12.65;;
41943;SDS011;27636;52.610;13.244;2023-10-19T12:37:08;31.45;;;12.93;;
41943;SDS011;27636;52.610;13.244;2023-10-19T12:42:13;28.90;;;12.05;;
41943;SDS011;27636;52.610;13.244;2023-10-19T12:47:17;30.60;;;13.33;;
41943;SDS011;27636;52.610;13.244;2023-10-19T12:52:22;23.58;;;9.73;;
41943;SDS011;27636;52.610;13.244;2023-10-19T12:57:26;30.95;;;14.00;;
41943;SDS011;27636;52.610;13.244;2023-10-19T13:02:30;32.80;;;13.32;;
41943;SDS011;27636;52.610;13.244;2023-10-19T13:07:35;27.17;;;13.50;;
41943;SDS011;27636;52.610;13.244;2023-10-19T13:12:42;26.27;;;11.98;;
41943;SDS011;27636;52.610;13.244;2023-10-19T13:17:47;29.13;;;13.40;;
41943;SDS011;27636;52.610;13.244;2023-10-19T13:22:52;33.15;;;15.27;;
41943;SDS011;27636;52.610;13.244;2023-10-19T13:27:56;33.85;;;16.17;;
41943;SDS011;27636;52.610;13.244;2023-10-19T13:33:00;42.60;;;15.15;;
41943;SDS011;27636;52.610;13.244;2023-10-19T13:38:05;31.52;;;14.82;;
41943;SDS011;27636;52.610;13.244;2023-10-19T13:43:09;28.67;;;13.25;;
41943;SDS011;27636;52.610;13.244;2023-10-19T13:48:17;33.08;;;15.13;;
41943;SDS011;27636;52.610;13.244;2023-10-19T13:53:22;32.65;;;14.93;;
41943;SDS011;27636;52.610;13.244;2023-10-19T13:58:26;30.85;;;14.85;;
41943;SDS011;27636;52.610;13.244;2023-10-19T14:03:29;33.63;;;12.98;;
41943;SDS011;27636;52.610;13.244;2023-10-19T14:08:35;31.70;;;13.70;;
41943;SDS011;27636;52.610;13.244;2023-10-19T14:18:45;34.13;;;15.15;;
41943;SDS011;27636;52.610;13.244;2023-10-19T14:23:51;34.80;;;15.00;;
41943;SDS011;27636;52.610;13.244;2023-10-19T14:28:56;35.28;;;14.07;;
41943;SDS011;27636;52.610;13.244;2023-10-19T14:33:59;33.95;;;14.93;;
41943;SDS011;27636;52.610;13.244;2023-10-19T14:39:04;32.40;;;13.38;;
41943;SDS011;27636;52.610;13.244;2023-10-19T14:44:08;31.30;;;14.05;;
41943;SDS011;27636;52.610;13.244;2023-10-19T14:49:12;27.50;;;13.50;;
41943;SDS011;27636;52.610;13.244;2023-10-19T14:54:16;30.13;;;13.63;;
41943;SDS011;27636;52.610;13.244;2023-10-19T15:04:24;36.15;;;14.10;;
41943;SDS011;27636;52.610;13.244;2023-10-19T15:09:32;37.63;;;15.38;;
41943;SDS011;27636;52.610;13.244;2023-10-19T15:19:42;33.55;;;16.52;;
41943;SDS011;27636;52.610;13.244;2023-10-19T15:24:51;35.00;;;16.10;;
41943;SDS011;27636;52.610;13.244;2023-10-19T15:29:57;37.75;;;14.68;;
41943;SDS011;27636;52.610;13.244;2023-10-19T15:35:01;33.75;;;15.35;;
41943;SDS011;27636;52.610;13.244;2023-10-19T15:40:07;36.60;;;14.23;;
41943;SDS011;27636;52.610;13.244;2023-10-19T15:45:15;33.33;;;14.52;;
41943;SDS011;27636;52.610;13.244;2023-10-19T15:50:22;30.95;;;15.00;;
41943;SDS011;27636;52.610;13.244;2023-10-19T15:55:28;30.90;;;15.15;;
41943;SDS011;27636;52.610;13.244;2023-10-19T16:00:32;32.83;;;16.00;;
41943;SDS011;27636;52.610;13.244;2023-10-19T16:05:36;29.20;;;14.25;;
41943;SDS011;27636;52.610;13.244;2023-10-19T16:10:41;33.42;;;16.95;;
41943;SDS011;27636;52.610;13.244;2023-10-19T16:15:44;35.28;;;16.42;;
41943;SDS011;27636;52.610;13.244;2023-10-19T16:20:48;35.60;;;16.13;;
41943;SDS011;27636;52.610;13.244;2023-10-19T16:25:58;40.80;;;16.33;;
41943;SDS011;27636;52.610;13.244;2023-10-19T16:31:06;26.65;;;16.20;;
41943;SDS011;27636;52.610;13.244;2023-10-19T16:36:09;34.72;;;17.25;;
41943;SDS011;27636;52.610;13.244;2023-10-19T16:41:14;42.22;;;17.05;;
41943;SDS011;27636;52.610;13.244;2023-10-19T16:46:18;36.42;;;16.50;;
41943;SDS011;27636;52.610;13.244;2023-10-19T16:51:22;37.65;;;17.95;;
41943;SDS011;27636;52.610;13.244;2023-10-19T16:56:27;43.22;;;18.33;;
41943;SDS011;27636;52.610;13.244;2023-10-19T17:01:30;41.88;;;14.23;;
41943;SDS011;27636;52.610;13.244;2023-10-19T17:06:35;34.90;;;14.67;;
41943;SDS011;27636;52.610;13.244;2023-10-19T17:11:41;36.23;;;16.13;;
41943;SDS011;27636;52.610;13.244;2023-10-19T17:16:44;40.72;;;17.13;;
41943;SDS011;27636;52.610;13.244;2023-10-19T17:21:48;32.97;;;15.98;;
41943;SDS011;27636;52.610;13.244;2023-10-19T17:26:53;34.30;;;15.20;;
41943;SDS011;27636;52.610;13.244;2023-10-19T17:31:57;31.23;;;14.07;;
41943;SDS011;27636;52.610;13.244;2023-10-19T17:37:01;36.95;;;15.30;;
41943;SDS011;27636;52.610;13.244;2023-10-19T17:42:06;29.52;;;14.45;;
41943;SDS011;27636;52.610;13.244;2023-10-19T17:47:10;33.15;;;13.70;;
41943;SDS011;27636;52.610;13.244;2023-10-19T17:52:15;27.13;;;13.68;;
41943;SDS011;27636;52.610;13.244;2023-10-19T17:57:21;31.77;;;13.05;;
41943;SDS011;27636;52.610;13.244;2023-10-19T18:02:26;37.60;;;14.25;;
41943;SDS011;27636;52.610;13.244;2023-10-19T18:07:30;29.65;;;12.77;;
41943;SDS011;27636;52.610;13.244;2023-10-19T18:12:36;35.75;;;13.73;;
41943;SDS011;27636;52.610;13.244;2023-10-19T18:17:40;29.15;;;13.95;;
41943;SDS011;27636;52.610;13.244;2023-10-19T18:22:44;30.35;;;13.80;;
41943;SDS011;27636;52.610;13.244;2023-10-19T18:27:49;31.35;;;12.35;;
41943;SDS011;27636;52.610;13.244;2023-10-19T18:32:54;26.90;;;13.20;;
41943;SDS011;27636;52.610;13.244;2023-10-19T18:37:58;27.92;;;12.98;;
41943;SDS011;27636;52.610;13.244;2023-10-19T18:43:03;26.02;;;13.23;;
41943;SDS011;27636;52.610;13.244;2023-10-19T18:48:18;30.98;;;11.95;;
41943;SDS011;27636;52.610;13.244;2023-10-19T18:53:41;31.17;;;13.43;;
41943;SDS011;27636;52.610;13.244;2023-10-19T18:58:47;28.10;;;12.48;;
41943;SDS011;27636;52.610;13.244;2023-10-19T19:03:52;21.90;;;10.90;;
41943;SDS011;27636;52.610;13.244;2023-10-19T19:08:56;27.10;;;11.40;;
41943;SDS011;27636;52.610;13.244;2023-10-19T19:14:01;28.20;;;11.40;;
41943;SDS011;27636;52.610;13.244;2023-10-19T19:24:09;25.23;;;10.73;;
41943;SDS011;27636;52.610;13.244;2023-10-19T19:29:14;24.42;;;11.65;;
41943;SDS011;27636;52.610;13.244;2023-10-19T19:34:21;24.63;;;11.18;;
41943;SDS011;27636;52.610;13.244;2023-10-19T19:39:25;21.80;;;10.65;;
41943;SDS011;27636;52.610;13.244;2023-10-19T19:44:30;26.30;;;12.50;;
41943;SDS011;27636;52.610;13.244;2023-10-19T19:49:34;26.95;;;11.20;;
41943;SDS011;27636;52.610;13.244;2023-10-19T19:54:37;20.92;;;9.95;;
41943;SDS011;27636;52.610;13.244;2023-10-19T19:59:43;18.80;;;9.35;;
41943;SDS011;27636;52.610;13.244;2023-10-19T20:04:47;21.02;;;8.30;;
41943;SDS011;27636;52.610;13.244;2023-10-19T20:09:53;21.33;;;9.90;;
41943;SDS011;27636;52.610;13.244;2023-10-19T20:20:03;16.58;;;7.20;;
41943;SDS011;27636;52.610;13.244;2023-10-19T20:25:11;16.23;;;8.68;;
41943;SDS011;27636;52.610;13.244;2023-10-19T20:30:17;21.08;;;9.20;;
41943;SDS011;27636;52.610;13.244;2023-10-19T20:35:21;19.73;;;9.55;;
41943;SDS011;27636;52.610;13.244;2023-10-19T20:40:25;22.27;;;9.83;;
41943;SDS011;27636;52.610;13.244;2023-10-19T20:45:35;23.85;;;9.93;;
41943;SDS011;27636;52.610;13.244;2023-10-19T20:50:39;16.75;;;8.60;;
41943;SDS011;27636;52.610;13.244;2023-10-19T20:55:43;23.00;;;9.52;;
41943;SDS011;27636;52.610;13.244;2023-10-19T21:00:49;20.90;;;10.13;;
41943;SDS011;27636;52.610;13.244;2023-10-19T21:05:53;19.15;;;8.05;;
41943;SDS011;27636;52.610;13.244;2023-10-19T21:10:58;21.00;;;9.40;;
41943;SDS011;27636;52.610;13.244;2023-10-19T21:16:05;22.63;;;10.73;;
41943;SDS011;27636;52.610;13.244;2023-10-19T21:21:10;29.02;;;11.25;;
41943;SDS011;27636;52.610;13.244;2023-10-19T21:26:14;27.70;;;11.18;;
41943;SDS011;27636;52.610;13.244;2023-10-19T21:31:19;28.65;;;11.77;;
41943;SDS011;27636;52.610;13.244;2023-10-19T21:36:24;30.38;;;10.93;;
41943;SDS011;27636;52.610;13.244;2023-10-19T21:41:29;21.08;;;9.38;;
41943;SDS011;27636;52.610;13.244;2023-10-19T21:46:34;27.38;;;12.65;;
41943;SDS011;27636;52.610;13.244;2023-10-19T21:51:38;22.13;;;10.90;;
41943;SDS011;27636;52.610;13.244;2023-10-19T21:56:43;31.15;;;12.30;;
41943;SDS011;27636;52.610;13.244;2023-10-19T22:01:48;18.30;;;9.55;;
41943;SDS011;27636;52.610;13.244;2023-10-19T22:06:52;21.75;;;10.93;;
41943;SDS011;27636;52.610;13.244;2023-10-19T22:11:56;23.45;;;12.25;;
41943;SDS011;27636;52.610;13.244;2023-10-19T22:17:02;20.67;;;10.43;;
41943;SDS011;27636;52.610;13.244;2023-10-19T22:22:07;18.08;;;10.23;;
41943;SDS011;27636;52.610;13.244;2023-10-19T22:27:11;27.42;;;10.13;;
41943;SDS011;27636;52.610;13.244;2023-10-19T22:32:18;21.00;;;8.52;;
41943;SDS011;27636;52.610;13.244;2023-10-19T22:37:22;18.77;;;9.30;;
41943;SDS011;27636;52.610;13.244;2023-10-19T22:42:26;27.48;;;10.20;;
41943;SDS011;27636;52.610;13.244;2023-10-19T22:47:31;22.60;;;10.20;;
41943;SDS011;27636;52.610;13.244;2023-10-19T22:52:38;24.85;;;11.88;;
41943;SDS011;27636;52.610;13.244;2023-10-19T22:57:42;24.55;;;10.70;;
41943;SDS011;27636;52.610;13.244;2023-10-19T23:02:48;23.83;;;10.30;;
41943;SDS011;27636;52.610;13.244;2023-10-19T23:07:52;20.85;;;10.73;;
41943;SDS011;27636;52.610;13.244;2023-10-19T23:12:57;23.65;;;10.45;;
41943;SDS011;27636;52.610;13.244;2023-10-19T23:18:05;20.90;;;8.75;;
41943;SDS011;27636;52.610;13.244;2023-10-19T23:23:10;22.65;;;9.73;;
41943;SDS011;27636;52.610;13.244;2023-10-19T23:28:16;17.65;;;7.95;;
41943;SDS011;27636;52.610;13.244;2023-10-19T23:33:21;26.35;;;9.65;;
41943;SDS011;27636;52.610;13.244;2023-10-19T23:38:24;22.27;;;9.43;;
41943;SDS011;27636;52.610;13.244;2023-10-19T23:43:28;17.08;;;8.43;;
41943;SDS011;27636;52.610;13.244;2023-10-19T23:48:35;22.88;;;9.90;;
41943;SDS011;27636;52.610;13.244;2023-10-19T23:53:38;21.45;;;8.60;;
41943;SDS011;27636;52.610;13.244;2023-10-19T23:58:44;21.45;;;8.95;;
